createdAt,value
2023-02-14T00:02:06.785Z,3.25
2023-02-14T00:04:38.518Z,3.25
2023-02-14T00:07:06.741Z,3.24
2023-02-14T00:09:34.973Z,3.18
2023-02-14T00:12:03.805Z,3.16
2023-02-14T00:14:51.188Z,3.15
2023-02-14T00:17:19.474Z,3.11
2023-02-14T00:19:47.716Z,3.09
2023-02-14T00:22:15.973Z,3.07
2023-02-14T00:24:44.209Z,3.03
2023-02-14T00:27:12.523Z,3.02
2023-02-14T00:29:42.168Z,2.98
2023-02-14T00:32:10.448Z,2.97
2023-02-14T00:34:38.757Z,2.95
2023-02-14T00:37:06.936Z,2.92
2023-02-14T00:39:35.464Z,2.89
2023-02-14T00:42:03.668Z,2.86
2023-02-14T00:44:31.835Z,2.90
2023-02-14T00:47:01.409Z,2.87
2023-02-14T00:49:30.020Z,2.87
2023-02-14T00:51:59.108Z,2.85
2023-02-14T00:54:27.928Z,2.85
2023-02-14T00:56:56.158Z,2.85
2023-02-14T00:59:24.686Z,2.81
2023-02-14T01:01:53.060Z,2.81
2023-02-14T01:04:22.856Z,2.77
2023-02-14T01:06:51.101Z,2.78
2023-02-14T01:09:19.492Z,2.76
2023-02-14T01:11:48.841Z,2.73
2023-02-14T01:14:17.145Z,2.72
2023-02-14T01:16:45.506Z,2.68
2023-02-14T01:19:14.329Z,2.67
2023-02-14T01:21:44.067Z,2.64
2023-02-14T01:24:13.617Z,2.64
2023-02-14T01:26:42.310Z,2.63
2023-02-14T01:29:10.664Z,2.62
2023-02-14T01:31:39.602Z,2.60
2023-02-14T01:34:08.057Z,2.58
2023-02-14T01:36:38.606Z,2.55
2023-02-14T01:39:11.733Z,2.53
2023-02-14T01:41:41.573Z,2.54
2023-02-14T01:44:48.722Z,2.52
2023-02-14T01:47:18.196Z,2.52
2023-02-14T01:49:51.074Z,2.45
2023-02-14T01:52:23.901Z,2.46
2023-02-14T01:54:57.701Z,2.45
2023-02-14T01:57:30.430Z,2.44
2023-02-14T02:00:20.936Z,2.43
2023-02-14T02:02:49.225Z,2.40
2023-02-14T02:05:23.728Z,2.38
2023-02-14T02:07:53.004Z,2.35
2023-02-14T02:10:22.926Z,2.32
2023-02-14T02:12:52.920Z,2.34
2023-02-14T02:15:24.986Z,2.32
2023-02-14T02:18:03.572Z,2.30
2023-02-14T02:21:15.929Z,2.29
2023-02-14T02:24:09.945Z,2.30
2023-02-14T02:27:13.615Z,2.27
2023-02-14T02:30:15.314Z,2.27
2023-02-14T02:33:28.245Z,2.24
2023-02-14T02:36:15.463Z,2.22
2023-02-14T02:39:01.882Z,2.22
2023-02-14T02:41:53.605Z,2.19
2023-02-14T02:44:30.990Z,2.17
2023-02-14T02:47:06.383Z,2.14
2023-02-14T02:50:00.922Z,2.12
2023-02-14T02:52:57.258Z,2.10
2023-02-14T02:55:53.031Z,2.06
2023-02-14T02:58:22.722Z,2.03
2023-02-14T03:00:53.394Z,1.98
2023-02-14T03:03:41.883Z,1.99
2023-02-14T03:06:10.173Z,1.95
2023-02-14T03:08:39.862Z,1.94
2023-02-14T03:11:08.347Z,1.93
2023-02-14T03:13:52.453Z,1.90
2023-02-14T03:16:35.677Z,1.87
2023-02-14T03:19:47.232Z,1.88
2023-02-14T03:22:23.176Z,1.86
2023-02-14T03:24:57.851Z,1.85
2023-02-14T03:27:31.840Z,1.84
2023-02-14T03:30:14.955Z,1.82
2023-02-14T03:32:47.770Z,1.83
2023-02-14T03:35:22.618Z,1.82
2023-02-14T03:37:57.044Z,1.79
2023-02-14T03:40:29.700Z,1.81
2023-02-14T03:43:01.982Z,1.78
2023-02-14T03:45:33.673Z,1.78
2023-02-14T03:48:07.037Z,1.78
2023-02-14T03:50:39.135Z,1.77
2023-02-14T03:53:12.253Z,1.75
2023-02-14T03:55:45.586Z,1.74
2023-02-14T03:58:22.825Z,1.72
2023-02-14T04:00:54.173Z,1.74
2023-02-14T04:03:24.987Z,1.73
2023-02-14T04:05:53.455Z,1.71
2023-02-14T04:08:26.183Z,1.69
2023-02-14T04:10:58.093Z,1.66
2023-02-14T04:13:27.134Z,1.62
2023-02-14T04:15:55.775Z,1.60
2023-02-14T04:18:41.870Z,1.59
2023-02-14T04:21:10.325Z,1.56
2023-02-14T04:23:38.676Z,1.55
2023-02-14T04:26:08.401Z,1.52
2023-02-14T04:28:36.916Z,1.50
2023-02-14T04:31:07.313Z,1.49
2023-02-14T04:33:36.203Z,1.46
2023-02-14T04:36:04.738Z,1.47
2023-02-14T04:38:34.039Z,1.46
2023-02-14T04:41:02.555Z,1.45
2023-02-14T04:43:32.368Z,1.44
2023-02-14T04:46:00.602Z,1.44
2023-02-14T04:48:29.084Z,1.42
2023-02-14T04:50:58.014Z,1.40
2023-02-14T04:53:27.220Z,1.36
2023-02-14T04:55:55.599Z,1.34
2023-02-14T04:58:24.042Z,1.33
2023-02-14T05:00:53.983Z,1.30
2023-02-14T05:03:22.478Z,1.28
2023-02-14T05:05:50.671Z,1.25
2023-02-14T05:08:18.975Z,1.22
2023-02-14T05:10:47.680Z,1.17
2023-02-14T05:13:15.890Z,1.16
2023-02-14T05:15:46.220Z,1.15
2023-02-14T05:18:15.928Z,1.11
2023-02-14T05:20:44.314Z,1.06
2023-02-14T05:23:13.866Z,1.03
2023-02-14T05:25:42.560Z,1.01
2023-02-14T05:28:10.980Z,0.99
2023-02-14T05:30:39.405Z,0.96
2023-02-14T05:33:08.195Z,0.94
2023-02-14T05:35:38.075Z,0.94
2023-02-14T05:38:07.203Z,0.94
2023-02-14T05:40:35.617Z,0.91
2023-02-14T05:43:03.869Z,0.91
2023-02-14T05:45:32.264Z,0.89
2023-02-14T05:48:00.548Z,0.85
2023-02-14T05:50:30.555Z,0.84
2023-02-14T05:53:02.082Z,0.81
2023-02-14T05:55:30.409Z,0.82
2023-02-14T05:57:58.739Z,0.84
2023-02-14T06:00:27.744Z,0.82
2023-02-14T06:02:56.031Z,0.82
2023-02-14T06:05:24.455Z,0.78
2023-02-14T06:07:52.810Z,0.80
2023-02-14T06:10:24.058Z,0.74
2023-02-14T06:12:54.486Z,0.77
2023-02-14T06:15:23.124Z,0.76
2023-02-14T06:17:55.583Z,0.73
2023-02-14T06:20:25.453Z,0.72
2023-02-14T06:22:53.877Z,0.70
2023-02-14T06:25:25.131Z,0.69
2023-02-14T06:27:56.589Z,0.65
2023-02-14T06:30:25.649Z,0.54
2023-02-14T06:32:54.128Z,0.49
2023-02-14T06:35:22.565Z,0.43
2023-02-14T06:37:50.813Z,0.40
2023-02-14T06:40:19.798Z,0.43
2023-02-14T06:42:49.438Z,0.44
2023-02-14T06:45:17.776Z,0.44
2023-02-14T06:47:47.073Z,0.40
2023-02-14T06:50:15.509Z,0.41
2023-02-14T06:52:44.738Z,0.41
2023-02-14T06:55:13.981Z,0.44
2023-02-14T06:57:42.429Z,0.46
2023-02-14T07:00:14.975Z,0.46
2023-02-14T07:02:43.797Z,0.48
2023-02-14T07:05:12.144Z,0.45
2023-02-14T07:07:43.193Z,0.52
2023-02-14T07:10:12.035Z,0.58
2023-02-14T07:12:40.546Z,0.67
2023-02-14T07:15:09.687Z,0.79
2023-02-14T07:17:39.717Z,0.85
2023-02-14T07:20:10.507Z,0.88
2023-02-14T07:22:40.655Z,0.93
2023-02-14T07:25:10.126Z,0.97
2023-02-14T07:27:38.358Z,1.07
2023-02-14T07:30:08.235Z,1.16
2023-02-14T07:32:38.136Z,1.23
2023-02-14T07:35:09.169Z,1.27
2023-02-14T07:37:37.720Z,1.34
2023-02-14T07:40:14.373Z,1.38
2023-02-14T07:42:43.590Z,1.41
2023-02-14T07:45:21.862Z,1.48
2023-02-14T07:47:51.745Z,1.53
2023-02-14T07:50:22.531Z,1.56
2023-02-14T07:52:51.628Z,1.60
2023-02-14T07:55:20.569Z,1.64
2023-02-14T07:57:50.144Z,1.68
2023-02-14T08:00:19.608Z,1.75
2023-02-14T08:02:49.189Z,1.81
2023-02-14T08:05:18.788Z,1.88
2023-02-14T08:07:48.592Z,1.92
2023-02-14T08:10:18.172Z,1.96
2023-02-14T08:13:01.599Z,2.02
2023-02-14T08:15:49.244Z,2.09
2023-02-14T08:18:18.847Z,2.17
2023-02-14T08:20:48.916Z,2.27
2023-02-14T08:23:19.630Z,2.33
2023-02-14T08:25:49.018Z,2.41
2023-02-14T08:28:17.340Z,2.45
2023-02-14T08:30:46.034Z,2.53
2023-02-14T08:33:14.424Z,2.56
2023-02-14T08:35:42.802Z,2.60
2023-02-14T08:38:11.079Z,2.62
2023-02-14T08:40:41.760Z,2.69
2023-02-14T08:43:11.053Z,2.73
2023-02-14T08:45:39.820Z,2.81
2023-02-14T08:48:10.102Z,2.88
2023-02-14T08:50:39.639Z,2.92
2023-02-14T08:53:09.874Z,2.97
2023-02-14T08:55:38.872Z,3.04
2023-02-14T08:58:09.253Z,3.08
2023-02-14T09:00:37.700Z,3.13
2023-02-14T09:03:06.157Z,3.18
2023-02-14T09:05:35.516Z,3.23
2023-02-14T09:08:03.817Z,3.31
2023-02-14T09:10:32.458Z,3.33
2023-02-14T09:13:00.726Z,3.32
2023-02-14T09:15:30.620Z,3.38
2023-02-14T09:17:58.936Z,3.47
2023-02-14T09:20:27.526Z,3.53
2023-02-14T09:22:57.269Z,3.59
2023-02-14T09:25:25.563Z,3.71
2023-02-14T09:27:53.835Z,3.82
2023-02-14T09:30:22.254Z,3.90
2023-02-14T09:32:53.166Z,3.86
2023-02-14T09:35:21.518Z,3.90
2023-02-14T09:37:49.909Z,3.94
2023-02-14T09:40:20.929Z,3.98
2023-02-14T09:43:02.110Z,4.07
2023-02-14T09:45:33.641Z,4.14
2023-02-14T09:48:08.108Z,4.11
2023-02-14T09:50:44.033Z,4.07
2023-02-14T09:53:21.595Z,4.02
2023-02-14T09:55:56.873Z,4.02
2023-02-14T09:58:32.621Z,4.03
2023-02-14T10:01:09.793Z,4.07
2023-02-14T10:03:53.039Z,4.07
2023-02-14T10:06:39.498Z,4.02
2023-02-14T10:09:15.848Z,4.08
2023-02-14T10:11:47.567Z,4.10
2023-02-14T10:14:19.465Z,4.10
2023-02-14T10:16:52.024Z,4.11
2023-02-14T10:19:27.144Z,4.08
2023-02-14T10:21:58.029Z,4.06
2023-02-14T10:24:31.317Z,4.04
2023-02-14T10:27:11.118Z,3.93
2023-02-14T10:29:39.410Z,3.90
2023-02-14T10:32:15.925Z,3.78
2023-02-14T10:34:49.624Z,3.68
2023-02-14T10:37:31.845Z,3.63
2023-02-14T10:40:28.882Z,3.62
2023-02-14T10:43:02.243Z,3.59
2023-02-14T10:45:43.576Z,3.61
2023-02-14T10:48:23.408Z,3.69
2023-02-14T10:51:00.749Z,3.75
2023-02-14T10:53:40.296Z,3.79
2023-02-14T10:56:18.695Z,3.70
2023-02-14T10:58:50.105Z,3.68
2023-02-14T11:01:20.195Z,3.69
2023-02-14T11:03:56.476Z,3.70
2023-02-14T11:06:26.388Z,3.69
2023-02-14T11:08:56.335Z,3.72
2023-02-14T11:11:31.625Z,3.75
2023-02-14T11:14:22.769Z,3.75
2023-02-14T11:16:53.033Z,3.71
2023-02-14T11:19:27.483Z,3.73
2023-02-14T11:21:59.398Z,3.69
2023-02-14T11:24:31.000Z,3.67
2023-02-14T11:27:03.148Z,3.58
2023-02-14T11:29:34.245Z,3.54
2023-02-14T11:32:10.020Z,3.49
2023-02-14T11:34:40.602Z,3.43
2023-02-14T11:37:27.046Z,3.39
2023-02-14T11:39:56.866Z,3.36
2023-02-14T11:42:39.076Z,3.35
2023-02-14T11:45:08.932Z,3.36
2023-02-14T11:47:41.567Z,3.43
2023-02-14T11:50:24.878Z,3.38
2023-02-14T11:52:56.958Z,3.29
2023-02-14T11:55:28.811Z,3.26
2023-02-14T11:57:57.983Z,3.24
2023-02-14T12:00:27.957Z,3.22
2023-02-14T12:02:58.117Z,3.16
2023-02-14T12:05:30.550Z,3.14
2023-02-14T12:08:03.022Z,3.18
2023-02-14T12:10:32.358Z,3.24
2023-02-14T12:13:02.870Z,3.30
2023-02-14T12:15:40.907Z,3.21
2023-02-14T12:18:38.315Z,3.15
2023-02-14T12:21:22.113Z,3.18
2023-02-14T12:24:01.798Z,3.20
2023-02-14T12:26:35.591Z,3.21
2023-02-14T12:29:14.411Z,3.29
2023-02-14T12:31:43.532Z,3.29
2023-02-14T12:34:13.304Z,3.29
2023-02-14T12:37:07.444Z,3.30
2023-02-14T12:39:43.762Z,3.35
2023-02-14T12:42:25.377Z,3.40
2023-02-14T12:45:04.173Z,3.50
2023-02-14T12:47:41.914Z,3.49
2023-02-14T12:50:38.940Z,3.50
2023-02-14T12:53:40.421Z,3.47
2023-02-14T12:56:15.489Z,3.45
2023-02-14T12:59:01.822Z,3.42
2023-02-14T13:01:58.556Z,3.48
2023-02-14T13:04:57.297Z,3.54
2023-02-14T13:07:39.710Z,3.61
2023-02-14T13:10:17.427Z,3.65
2023-02-14T13:12:53.919Z,3.70
2023-02-14T13:15:33.437Z,3.76
2023-02-14T13:18:10.053Z,3.77
2023-02-14T13:20:49.954Z,3.76
2023-02-14T13:23:24.078Z,3.79
2023-02-14T13:25:57.728Z,3.80
2023-02-14T13:28:28.916Z,3.87
2023-02-14T13:31:00.151Z,3.87
2023-02-14T13:33:35.209Z,3.86
2023-02-14T13:36:07.945Z,3.90
2023-02-14T13:38:44.945Z,3.96
2023-02-14T13:41:15.645Z,3.95
2023-02-14T13:43:52.895Z,3.96
2023-02-14T13:46:52.445Z,4.02
2023-02-14T13:49:34.770Z,4.05
2023-02-14T13:52:08.287Z,4.06
2023-02-14T13:54:44.105Z,4.09
2023-02-14T13:57:31.681Z,4.16
2023-02-14T14:00:42.861Z,4.18
2023-02-14T14:03:16.771Z,4.21
2023-02-14T14:05:58.808Z,4.26
2023-02-14T14:08:56.788Z,4.31
2023-02-14T14:11:59.070Z,4.35
2023-02-14T14:14:36.513Z,4.33
2023-02-14T14:17:21.128Z,4.38
2023-02-14T14:19:51.108Z,4.43
2023-02-14T14:22:22.093Z,4.48
2023-02-14T14:25:01.796Z,4.53
2023-02-14T14:27:34.622Z,4.53
2023-02-14T14:30:06.316Z,4.54
2023-02-14T14:32:36.779Z,4.56
2023-02-14T14:35:08.687Z,4.56
2023-02-14T14:37:46.624Z,4.58
2023-02-14T14:40:25.104Z,4.54
2023-02-14T14:43:01.984Z,4.59
2023-02-14T14:45:31.972Z,4.59
2023-02-14T14:48:04.471Z,4.63
2023-02-14T14:50:40.022Z,4.65
2023-02-14T14:53:11.267Z,4.65
2023-02-14T14:55:41.697Z,4.65
2023-02-14T14:58:34.591Z,4.68
2023-02-14T15:01:03.954Z,4.64
2023-02-14T15:03:32.923Z,4.66
2023-02-14T15:06:11.533Z,4.71
2023-02-14T15:08:39.842Z,4.74
2023-02-14T15:11:10.845Z,4.73
2023-02-14T15:13:53.937Z,4.74
2023-02-14T15:16:25.152Z,4.79
2023-02-14T15:18:56.914Z,4.83
2023-02-14T15:21:27.036Z,4.87
2023-02-14T15:23:55.489Z,4.92
2023-02-14T15:26:28.733Z,4.97
2023-02-14T15:29:17.993Z,5.01
2023-02-14T15:31:47.270Z,5.05
2023-02-14T15:34:15.917Z,5.05
2023-02-14T15:36:49.168Z,5.06
2023-02-14T15:39:18.365Z,5.09
2023-02-14T15:41:47.367Z,5.11
2023-02-14T15:44:21.374Z,5.16
2023-02-14T15:46:52.830Z,5.18
2023-02-14T15:49:23.937Z,5.20
2023-02-14T15:51:56.401Z,5.19
2023-02-14T15:54:33.434Z,5.13
2023-02-14T15:57:02.625Z,5.12
2023-02-14T15:59:34.175Z,5.08
2023-02-14T16:02:06.312Z,5.09
2023-02-14T16:04:36.982Z,5.09
2023-02-14T16:07:22.614Z,5.06
2023-02-14T16:09:51.870Z,5.05
2023-02-14T16:12:33.154Z,5.03
2023-02-14T16:15:17.605Z,5.04
2023-02-14T16:17:46.187Z,5.07
2023-02-14T16:20:23.584Z,5.11
2023-02-14T16:22:53.384Z,5.10
2023-02-14T16:25:21.840Z,5.06
2023-02-14T16:27:50.052Z,5.07
2023-02-14T16:30:19.978Z,5.07
2023-02-14T16:32:53.782Z,5.08
2023-02-14T16:35:23.123Z,5.10
2023-02-14T16:37:53.863Z,5.09
2023-02-14T16:40:26.797Z,5.11
2023-02-14T16:42:56.517Z,5.13
2023-02-14T16:45:25.773Z,5.17
2023-02-14T16:47:57.616Z,5.20
2023-02-14T16:50:26.868Z,5.19
2023-02-14T16:52:59.207Z,5.16
2023-02-14T16:55:33.123Z,5.13
2023-02-14T16:58:03.830Z,5.15
2023-02-14T17:00:32.111Z,5.14
2023-02-14T17:03:06.360Z,5.16
2023-02-14T17:05:36.864Z,5.17
2023-02-14T17:08:08.875Z,5.14
2023-02-14T17:10:37.468Z,5.11
2023-02-14T17:13:07.157Z,5.11
2023-02-14T17:15:36.117Z,5.10
2023-02-14T17:18:10.183Z,5.13
2023-02-14T17:20:38.829Z,5.11
2023-02-14T17:23:09.093Z,5.11
2023-02-14T17:25:38.806Z,5.11
2023-02-14T17:28:07.049Z,5.08
2023-02-14T17:30:35.363Z,5.05
2023-02-14T17:33:03.658Z,5.07
2023-02-14T17:35:32.308Z,5.04
2023-02-14T17:38:00.603Z,5.04
2023-02-14T17:40:31.417Z,5.05
2023-02-14T17:42:59.765Z,5.07
2023-02-14T17:45:28.278Z,5.10
2023-02-14T17:47:56.579Z,5.11
2023-02-14T17:50:24.846Z,5.12
2023-02-14T17:52:56.508Z,5.15
2023-02-14T17:55:25.204Z,5.16
2023-02-14T17:57:55.250Z,5.17
2023-02-14T18:00:24.421Z,5.18
2023-02-14T18:02:52.695Z,5.21
2023-02-14T18:05:20.910Z,5.21
2023-02-14T18:07:49.289Z,5.23
2023-02-14T18:10:17.573Z,5.20
2023-02-14T18:12:45.754Z,5.17
2023-02-14T18:15:15.357Z,5.11
2023-02-14T18:17:43.782Z,5.10
2023-02-14T18:20:12.729Z,5.08
2023-02-14T18:22:40.910Z,5.05
2023-02-14T18:25:09.536Z,5.05
2023-02-14T18:27:39.422Z,5.04
2023-02-14T18:30:09.339Z,5.00
2023-02-14T18:32:39.319Z,4.96
2023-02-14T18:35:08.956Z,4.97
2023-02-14T18:37:37.410Z,4.93
2023-02-14T18:40:07.269Z,4.94
2023-02-14T18:42:35.854Z,4.92
2023-02-14T18:45:04.050Z,4.90
2023-02-14T18:47:32.457Z,4.86
2023-02-14T18:50:02.103Z,4.77
2023-02-14T18:52:30.699Z,4.74
2023-02-14T18:54:59.501Z,4.71
2023-02-14T18:57:27.782Z,4.71
2023-02-14T18:59:55.989Z,4.71
2023-02-14T19:02:24.237Z,4.69
2023-02-14T19:04:52.574Z,4.66
2023-02-14T19:07:22.213Z,4.68
2023-02-14T19:09:50.429Z,4.66
2023-02-14T19:12:18.623Z,4.66
2023-02-14T19:14:46.865Z,4.69
2023-02-14T19:17:15.195Z,4.72
2023-02-14T19:19:43.633Z,4.72
2023-02-14T19:22:12.343Z,4.71
2023-02-14T19:24:42.211Z,4.70
2023-02-14T19:27:10.521Z,4.70
2023-02-14T19:29:39.049Z,4.68
2023-02-14T19:32:07.536Z,4.71
2023-02-14T19:34:36.442Z,4.67
2023-02-14T19:37:04.716Z,4.66
2023-02-14T19:39:33.081Z,4.63
2023-02-14T19:42:04.154Z,4.62
2023-02-14T19:44:32.730Z,4.60
2023-02-14T19:47:07.644Z,4.59
2023-02-14T19:49:41.284Z,4.58
2023-02-14T19:52:25.726Z,4.57
2023-02-14T19:54:59.434Z,4.55
2023-02-14T19:57:29.137Z,4.54
2023-02-14T19:59:57.367Z,4.54
2023-02-14T20:02:25.647Z,4.54
2023-02-14T20:04:58.973Z,4.52
2023-02-14T20:07:27.376Z,4.51
2023-02-14T20:09:56.468Z,4.51
2023-02-14T20:12:24.973Z,4.50
2023-02-14T20:14:56.629Z,4.49
2023-02-14T20:17:25.649Z,4.48
2023-02-14T20:19:54.042Z,4.45
2023-02-14T20:22:23.257Z,4.42
2023-02-14T20:24:51.506Z,4.42
2023-02-14T20:27:20.085Z,4.41
2023-02-14T20:29:48.503Z,4.40
2023-02-14T20:32:20.182Z,4.41
2023-02-14T20:34:49.084Z,4.42
2023-02-14T20:37:17.441Z,4.40
2023-02-14T20:39:45.722Z,4.40
2023-02-14T20:42:14.020Z,4.43
2023-02-14T20:44:42.797Z,4.46
2023-02-14T20:47:11.541Z,4.46
2023-02-14T20:49:44.803Z,4.47
2023-02-14T20:52:13.833Z,4.46
2023-02-14T20:54:43.069Z,4.44
2023-02-14T20:57:11.298Z,4.42
2023-02-14T20:59:44.742Z,4.40
2023-02-14T21:02:13.337Z,4.43
2023-02-14T21:04:42.985Z,4.43
2023-02-14T21:07:11.583Z,4.42
2023-02-14T21:09:39.878Z,4.43
2023-02-14T21:12:08.864Z,4.43
2023-02-14T21:14:37.200Z,4.44
2023-02-14T21:17:05.869Z,4.43
2023-02-14T21:19:34.398Z,4.45
2023-02-14T21:22:04.488Z,4.43
2023-02-14T21:24:32.768Z,4.41
2023-02-14T21:27:01.803Z,4.39
2023-02-14T21:29:30.083Z,4.39
2023-02-14T21:31:58.453Z,4.40
2023-02-14T21:34:27.956Z,4.37
2023-02-14T21:36:56.406Z,4.35
2023-02-14T21:39:27.915Z,4.32
2023-02-14T21:41:56.581Z,4.29
2023-02-14T21:44:39.727Z,4.27
2023-02-14T21:47:07.913Z,4.26
2023-02-14T21:49:53.890Z,4.25
2023-02-14T21:52:22.393Z,4.25
2023-02-14T21:54:53.938Z,4.29
2023-02-14T21:57:22.206Z,4.30
2023-02-14T21:59:50.459Z,4.34
2023-02-14T22:02:18.767Z,4.35
2023-02-14T22:04:47.218Z,4.34
2023-02-14T22:07:15.435Z,4.34
2023-02-14T22:09:43.640Z,4.34
2023-02-14T22:12:13.584Z,4.29
2023-02-14T22:14:41.828Z,4.29
2023-02-14T22:17:10.157Z,4.26
2023-02-14T22:19:38.479Z,4.21
2023-02-14T22:22:06.804Z,4.19
2023-02-14T22:24:34.999Z,4.18
2023-02-14T22:27:03.266Z,4.16
2023-02-14T22:29:32.877Z,4.17
2023-02-14T22:32:01.157Z,4.18
2023-02-14T22:34:29.615Z,4.19
2023-02-14T22:36:58.069Z,4.15
2023-02-14T22:39:26.302Z,4.16
2023-02-14T22:41:54.616Z,4.16
2023-02-14T22:44:22.900Z,4.15
2023-02-14T22:46:52.580Z,4.18
2023-02-14T22:49:20.889Z,4.19
2023-02-14T22:51:50.317Z,4.20
2023-02-14T22:54:18.668Z,4.23
2023-02-14T22:56:48.792Z,4.24
2023-02-14T22:59:18.832Z,4.24
2023-02-14T23:01:47.678Z,4.23
2023-02-14T23:04:21.710Z,4.23
2023-02-14T23:06:50.510Z,4.24
2023-02-14T23:09:18.986Z,4.26
2023-02-14T23:11:48.700Z,4.27
2023-02-14T23:14:35.543Z,4.28
2023-02-14T23:17:21.753Z,4.25
2023-02-14T23:20:08.901Z,4.21
2023-02-14T23:22:39.152Z,4.19
2023-02-14T23:25:09.296Z,4.19
2023-02-14T23:27:39.852Z,4.19
2023-02-14T23:30:11.414Z,4.17
2023-02-14T23:32:39.940Z,4.11
2023-02-14T23:35:10.094Z,4.07
2023-02-14T23:37:38.449Z,4.05
2023-02-14T23:40:08.697Z,4.06
2023-02-14T23:42:36.963Z,4.08
2023-02-14T23:45:19.364Z,4.09
2023-02-14T23:47:47.584Z,4.09
2023-02-14T23:50:18.835Z,4.12
2023-02-14T23:52:47.109Z,4.09
2023-02-14T23:55:16.481Z,4.08
2023-02-14T23:57:44.708Z,4.06
